createdAt,value
2023-01-28T03:59:48.617Z,1023.03
2023-01-28T04:00:47.156Z,1023.06
2023-01-28T04:01:49.159Z,1023.06
2023-01-28T04:02:48.162Z,1023.09
2023-01-28T04:03:48.121Z,1023.06
2023-01-28T04:04:49.084Z,1023.03
2023-01-28T04:05:48.103Z,1023.07
2023-01-28T04:06:48.599Z,1023.04
2023-01-28T04:07:47.092Z,1023.04
2023-01-28T04:08:48.083Z,1023.05
2023-01-28T04:09:47.094Z,1023.05
2023-01-28T04:10:48.622Z,1023.09
2023-01-28T04:11:47.061Z,1023.12
2023-01-28T04:12:47.060Z,1023.15
2023-01-28T04:13:47.061Z,1023.20
2023-01-28T04:14:47.094Z,1023.17
2023-01-28T04:15:48.119Z,1023.22
2023-01-28T04:16:48.613Z,1023.25
2023-01-28T04:17:47.040Z,1023.24
2023-01-28T04:18:48.039Z,1023.24
2023-01-28T04:19:47.030Z,1023.28
2023-01-28T04:20:47.013Z,1023.26
2023-01-28T04:21:48.629Z,1023.29
2023-01-28T04:22:48.614Z,1023.24
2023-01-28T04:23:48.599Z,1023.26
2023-01-28T04:24:48.634Z,1023.25
2023-01-28T04:25:48.620Z,1023.26
2023-01-28T04:26:48.610Z,1023.23
2023-01-28T04:27:48.604Z,1023.21
2023-01-28T04:28:48.607Z,1023.22
2023-01-28T04:29:48.641Z,1023.18
2023-01-28T04:30:48.717Z,1023.22
2023-01-28T04:31:48.725Z,1023.20
2023-01-28T04:32:48.628Z,1023.25
2023-01-28T04:33:48.609Z,1023.20
2023-01-28T04:34:47.946Z,1023.15
2023-01-28T04:35:48.616Z,1023.17
2023-01-28T04:36:48.632Z,1023.18
2023-01-28T04:37:46.925Z,1023.17
2023-01-28T04:38:47.922Z,1023.14
2023-01-28T04:39:48.630Z,1023.19
2023-01-28T04:40:47.917Z,1023.21
2023-01-28T04:41:48.645Z,1023.18
2023-01-28T04:42:47.905Z,1023.14
2023-01-28T04:43:47.906Z,1023.12
2023-01-28T04:44:46.901Z,1023.08
2023-01-28T04:45:47.895Z,1023.09
2023-01-28T04:46:48.687Z,1023.10
2023-01-28T04:47:48.138Z,1023.15
2023-01-28T04:48:47.876Z,1023.16
2023-01-28T04:49:47.867Z,1023.18
2023-01-28T04:50:46.888Z,1023.17
2023-01-28T04:51:46.861Z,1023.18
2023-01-28T04:52:48.632Z,1023.12
2023-01-28T04:53:48.642Z,1023.16
2023-01-28T04:54:48.643Z,1023.16
2023-01-28T04:55:48.639Z,1023.18
2023-01-28T04:56:48.623Z,1023.14
2023-01-28T04:57:48.707Z,1023.15
2023-01-28T04:58:48.634Z,1023.13
2023-01-28T04:59:48.636Z,1023.15
2023-01-28T05:00:48.675Z,1023.14
2023-01-28T05:01:48.667Z,1023.17
2023-01-28T05:02:48.635Z,1023.20
2023-01-28T05:03:48.679Z,1023.20
2023-01-28T05:04:48.644Z,1023.20
2023-01-28T05:05:48.638Z,1023.19
2023-01-28T05:06:48.634Z,1023.20
2023-01-28T05:07:48.652Z,1023.18
2023-01-28T05:08:48.643Z,1023.19
2023-01-28T05:09:48.642Z,1023.26
2023-01-28T05:10:46.775Z,1023.23
2023-01-28T05:11:48.655Z,1023.24
2023-01-28T05:12:46.782Z,1023.23
2023-01-28T05:13:48.155Z,1023.19
2023-01-28T05:14:46.767Z,1023.21
2023-01-28T05:15:46.760Z,1023.20
2023-01-28T05:16:46.754Z,1023.19
2023-01-28T05:17:48.657Z,1023.21
2023-01-28T05:18:46.758Z,1023.17
2023-01-28T05:19:46.744Z,1023.20
2023-01-28T05:20:46.726Z,1023.22
2023-01-28T05:21:46.728Z,1023.22
2023-01-28T05:22:48.679Z,1023.18
2023-01-28T05:23:46.719Z,1023.18
2023-01-28T05:24:46.725Z,1023.19
2023-01-28T05:25:47.722Z,1023.19
2023-01-28T05:26:46.702Z,1023.21
2023-01-28T05:27:48.668Z,1023.19
2023-01-28T05:28:47.693Z,1023.20
2023-01-28T05:29:47.693Z,1023.24
2023-01-28T05:30:46.818Z,1023.23
2023-01-28T05:31:48.662Z,1023.23
2023-01-28T05:32:46.783Z,1023.25
2023-01-28T05:33:48.179Z,1023.26
2023-01-28T05:34:47.670Z,1023.26
2023-01-28T05:35:48.200Z,1023.24
2023-01-28T05:36:46.647Z,1023.21
2023-01-28T05:37:48.172Z,1023.18
2023-01-28T05:38:48.179Z,1023.16
2023-01-28T05:39:48.159Z,1023.11
2023-01-28T05:40:48.188Z,1023.14
2023-01-28T05:41:48.171Z,1023.21
2023-01-28T05:42:48.170Z,1023.18
2023-01-28T05:43:48.186Z,1023.21
2023-01-28T05:44:48.183Z,1023.18
2023-01-28T05:45:47.814Z,1023.13
2023-01-28T05:46:48.166Z,1023.10
2023-01-28T05:47:48.184Z,1023.08
2023-01-28T05:48:48.188Z,1023.04
2023-01-28T05:49:48.170Z,1023.02
2023-01-28T05:50:46.587Z,1023.03
2023-01-28T05:51:48.183Z,1023.04
2023-01-28T05:52:46.589Z,1023.02
2023-01-28T05:53:47.686Z,1023.05
2023-01-28T05:54:46.579Z,1023.03
2023-01-28T05:55:46.564Z,1023.04
2023-01-28T05:56:48.186Z,1023.06
2023-01-28T05:57:48.186Z,1023.04
2023-01-28T05:58:48.203Z,1023.02
2023-01-28T05:59:48.192Z,1023.03
2023-01-28T06:00:48.201Z,1023.00
2023-01-28T06:01:48.177Z,1023.03
2023-01-28T06:02:48.181Z,1023.06
2023-01-28T06:03:47.699Z,1023.12
2023-01-28T06:04:48.202Z,1023.12
2023-01-28T06:05:48.176Z,1023.09
2023-01-28T06:06:46.521Z,1023.09
2023-01-28T06:07:48.205Z,1023.06
2023-01-28T06:08:48.183Z,1023.11
2023-01-28T06:09:48.207Z,1023.10
2023-01-28T06:10:48.183Z,1023.09
2023-01-28T06:11:48.187Z,1023.11
2023-01-28T06:12:48.186Z,1023.10
2023-01-28T06:13:48.190Z,1023.10
2023-01-28T06:14:48.221Z,1023.11
2023-01-28T06:15:48.202Z,1023.09
2023-01-28T06:16:48.199Z,1023.07
2023-01-28T06:17:48.207Z,1023.05
2023-01-28T06:18:48.206Z,1023.05
2023-01-28T06:19:48.229Z,1023.00
2023-01-28T06:20:48.188Z,1023.00
2023-01-28T06:21:48.199Z,1023.02
2023-01-28T06:22:48.200Z,1023.09
2023-01-28T06:23:47.470Z,1023.13
2023-01-28T06:24:48.223Z,1023.10
2023-01-28T06:25:47.711Z,1023.13
2023-01-28T06:26:46.430Z,1023.10
2023-01-28T06:27:48.205Z,1023.13
2023-01-28T06:28:48.204Z,1023.10
2023-01-28T06:29:48.211Z,1023.10
2023-01-28T06:30:48.261Z,1023.05
2023-01-28T06:31:48.230Z,1023.03
2023-01-28T06:32:48.221Z,1023.01
2023-01-28T06:33:48.227Z,1023.01
2023-01-28T06:34:48.223Z,1023.01
2023-01-28T06:35:48.273Z,1022.96
2023-01-28T06:36:48.208Z,1023.02
2023-01-28T06:37:48.230Z,1023.00
2023-01-28T06:38:48.231Z,1022.98
2023-01-28T06:39:48.222Z,1022.97
2023-01-28T06:40:48.219Z,1022.96
2023-01-28T06:41:48.221Z,1023.01
2023-01-28T06:42:48.246Z,1023.07
2023-01-28T06:43:48.226Z,1023.13
2023-01-28T06:44:48.233Z,1023.16
2023-01-28T06:45:48.228Z,1023.13
2023-01-28T06:46:48.231Z,1023.14
2023-01-28T06:47:48.231Z,1023.18
2023-01-28T06:48:48.241Z,1023.19
2023-01-28T06:49:46.357Z,1023.24
2023-01-28T06:50:49.231Z,1023.25
2023-01-28T06:51:48.234Z,1023.24
2023-01-28T06:52:46.319Z,1023.19
2023-01-28T06:53:46.306Z,1023.17
2023-01-28T06:54:46.295Z,1023.16
2023-01-28T06:55:47.775Z,1023.20
2023-01-28T06:56:46.287Z,1023.24
2023-01-28T06:57:46.284Z,1023.28
2023-01-28T06:58:46.285Z,1023.31
2023-01-28T06:59:47.734Z,1023.34
2023-01-28T07:00:47.264Z,1023.31
2023-01-28T07:01:46.301Z,1023.29
2023-01-28T07:02:48.306Z,1023.25
2023-01-28T07:03:47.265Z,1023.27
2023-01-28T07:04:47.745Z,1023.25
2023-01-28T07:05:46.249Z,1023.32
2023-01-28T07:06:47.751Z,1023.31
2023-01-28T07:07:47.749Z,1023.32
2023-01-28T07:08:47.230Z,1023.33
2023-01-28T07:09:47.760Z,1023.30
2023-01-28T07:10:47.762Z,1023.28
2023-01-28T07:11:47.764Z,1023.28
2023-01-28T07:12:47.744Z,1023.26
2023-01-28T07:13:47.736Z,1023.29
2023-01-28T07:14:47.737Z,1023.32
2023-01-28T07:15:47.834Z,1023.37
2023-01-28T07:16:47.796Z,1023.36
2023-01-28T07:17:47.736Z,1023.39
2023-01-28T07:18:47.744Z,1023.35
2023-01-28T07:19:47.740Z,1023.35
2023-01-28T07:20:47.766Z,1023.34
2023-01-28T07:21:47.760Z,1023.32
2023-01-28T07:22:47.756Z,1023.33
2023-01-28T07:23:47.743Z,1023.28
2023-01-28T07:24:47.745Z,1023.25
2023-01-28T07:25:47.762Z,1023.29
2023-01-28T07:26:47.760Z,1023.28
2023-01-28T07:27:47.794Z,1023.35
2023-01-28T07:28:46.151Z,1023.28
2023-01-28T07:29:46.131Z,1023.29
2023-01-28T07:30:47.785Z,1023.28
2023-01-28T07:31:47.883Z,1023.27
2023-01-28T07:32:47.768Z,1023.30
2023-01-28T07:33:47.777Z,1023.30
2023-01-28T07:34:47.757Z,1023.36
2023-01-28T07:35:47.822Z,1023.43
2023-01-28T07:36:47.767Z,1023.45
2023-01-28T07:37:47.756Z,1023.49
2023-01-28T07:38:47.754Z,1023.47
2023-01-28T07:39:47.768Z,1023.43
2023-01-28T07:40:47.766Z,1023.40
2023-01-28T07:41:47.769Z,1023.40
2023-01-28T07:42:47.775Z,1023.39
2023-01-28T07:43:47.781Z,1023.35
2023-01-28T07:44:46.059Z,1023.40
2023-01-28T07:45:48.489Z,1023.41
2023-01-28T07:46:46.059Z,1023.43
2023-01-28T07:47:46.071Z,1023.43
2023-01-28T07:48:47.774Z,1023.46
2023-01-28T07:49:47.035Z,1023.49
2023-01-28T07:50:47.797Z,1023.49
2023-01-28T07:51:46.026Z,1023.48
2023-01-28T07:52:46.026Z,1023.45
2023-01-28T07:53:47.793Z,1023.51
2023-01-28T07:54:46.014Z,1023.53
2023-01-28T07:55:47.787Z,1023.58
2023-01-28T07:56:45.999Z,1023.61
2023-01-28T07:57:45.998Z,1023.65
2023-01-28T07:58:47.010Z,1023.62
2023-01-28T07:59:46.011Z,1023.59
2023-01-28T08:00:47.818Z,1023.59
2023-01-28T08:01:46.069Z,1023.65
2023-01-28T08:02:47.790Z,1023.65
2023-01-28T08:03:47.773Z,1023.74
2023-01-28T08:04:48.054Z,1023.72
2023-01-28T08:05:47.795Z,1023.80
2023-01-28T08:06:47.777Z,1023.87
2023-01-28T08:07:47.776Z,1023.86
2023-01-28T08:08:47.792Z,1023.80
2023-01-28T08:09:47.811Z,1023.78
2023-01-28T08:10:47.842Z,1023.70
2023-01-28T08:11:47.783Z,1023.70
2023-01-28T08:12:46.923Z,1023.76
2023-01-28T08:13:47.782Z,1023.77
2023-01-28T08:14:47.803Z,1023.85
2023-01-28T08:15:47.839Z,1023.89
2023-01-28T08:16:47.813Z,1023.95
2023-01-28T08:17:45.918Z,1024.01
2023-01-28T08:18:45.908Z,1024.01
2023-01-28T08:19:47.306Z,1024.10
2023-01-28T08:20:45.909Z,1024.08
2023-01-28T08:21:47.814Z,1024.10
2023-01-28T08:22:45.892Z,1024.14
2023-01-28T08:23:45.898Z,1024.11
2023-01-28T08:24:45.877Z,1024.12
2023-01-28T08:25:45.872Z,1024.13
2023-01-28T08:26:47.862Z,1024.18
2023-01-28T08:27:45.878Z,1024.25
2023-01-28T08:28:45.876Z,1024.27
2023-01-28T08:29:45.865Z,1024.30
2023-01-28T08:30:47.937Z,1024.30
2023-01-28T08:31:45.947Z,1024.30
2023-01-28T08:32:47.813Z,1024.29
2023-01-28T08:33:45.835Z,1024.24
2023-01-28T08:34:45.825Z,1024.22
2023-01-28T08:35:47.862Z,1024.25
2023-01-28T08:36:45.823Z,1024.29
2023-01-28T08:37:47.820Z,1024.36
2023-01-28T08:38:46.829Z,1024.42
2023-01-28T08:39:47.319Z,1024.38
2023-01-28T08:40:45.817Z,1024.43
2023-01-28T08:41:47.315Z,1024.47
2023-01-28T08:42:47.318Z,1024.44
2023-01-28T08:43:47.309Z,1024.42
2023-01-28T08:44:45.791Z,1024.38
2023-01-28T08:45:47.321Z,1024.40
2023-01-28T08:46:47.325Z,1024.39
2023-01-28T08:47:47.322Z,1024.42
2023-01-28T08:48:47.326Z,1024.38
2023-01-28T08:49:47.329Z,1024.40
2023-01-28T08:50:47.328Z,1024.36
2023-01-28T08:51:47.342Z,1024.35
2023-01-28T08:52:48.727Z,1024.36
2023-01-28T08:53:47.331Z,1024.38
2023-01-28T08:54:47.328Z,1024.38
2023-01-28T08:55:47.351Z,1024.40
2023-01-28T08:56:47.337Z,1024.40
2023-01-28T08:57:47.389Z,1024.36
2023-01-28T08:58:47.329Z,1024.39
2023-01-28T08:59:47.321Z,1024.41
2023-01-28T09:00:47.326Z,1024.38
2023-01-28T09:01:47.401Z,1024.40
2023-01-28T09:02:47.337Z,1024.41
2023-01-28T09:03:47.425Z,1024.44
2023-01-28T09:04:45.702Z,1024.46
2023-01-28T09:05:47.325Z,1024.48
2023-01-28T09:06:47.345Z,1024.45
2023-01-28T09:07:47.379Z,1024.48
2023-01-28T09:08:47.333Z,1024.46
2023-01-28T09:09:47.341Z,1024.55
2023-01-28T09:10:47.342Z,1024.57
2023-01-28T09:11:47.358Z,1024.58
2023-01-28T09:12:47.374Z,1024.54
2023-01-28T09:13:47.355Z,1024.54
2023-01-28T09:14:47.337Z,1024.51
2023-01-28T09:15:47.345Z,1024.53
2023-01-28T09:16:47.345Z,1024.55
2023-01-28T09:17:47.348Z,1024.59
2023-01-28T09:18:47.352Z,1024.67
2023-01-28T09:19:47.351Z,1024.70
2023-01-28T09:20:45.641Z,1024.77
2023-01-28T09:21:47.337Z,1024.77
2023-01-28T09:22:47.350Z,1024.82
2023-01-28T09:23:47.359Z,1024.86
2023-01-28T09:24:47.340Z,1024.89
2023-01-28T09:25:47.362Z,1024.79
2023-01-28T09:26:47.342Z,1024.74
2023-01-28T09:27:47.359Z,1024.69
2023-01-28T09:28:46.862Z,1024.69
2023-01-28T09:29:45.586Z,1024.65
2023-01-28T09:30:45.615Z,1024.65
2023-01-28T09:31:45.680Z,1024.67
2023-01-28T09:32:45.579Z,1024.66
2023-01-28T09:33:47.363Z,1024.68
2023-01-28T09:34:45.584Z,1024.66
2023-01-28T09:35:45.583Z,1024.66
2023-01-28T09:36:45.554Z,1024.62
2023-01-28T09:37:47.372Z,1024.67
2023-01-28T09:38:47.374Z,1024.62
2023-01-28T09:39:47.361Z,1024.60
2023-01-28T09:40:47.355Z,1024.61
2023-01-28T09:41:47.367Z,1024.57
2023-01-28T09:42:47.359Z,1024.54
2023-01-28T09:43:47.378Z,1024.51
2023-01-28T09:44:47.359Z,1024.58
2023-01-28T09:45:47.373Z,1024.61
2023-01-28T09:46:47.388Z,1024.57
2023-01-28T09:47:47.369Z,1024.58
2023-01-28T09:48:47.383Z,1024.58
2023-01-28T09:49:47.375Z,1024.56
2023-01-28T09:50:47.371Z,1024.50
2023-01-28T09:51:47.400Z,1024.51
2023-01-28T09:52:47.398Z,1024.55
2023-01-28T09:53:49.878Z,1024.58
2023-01-28T09:54:47.390Z,1024.62
2023-01-28T09:55:47.367Z,1024.62
2023-01-28T09:56:47.376Z,1024.64
2023-01-28T09:57:47.386Z,1024.65
2023-01-28T09:58:47.382Z,1024.66
2023-01-28T09:59:47.385Z,1024.66
2023-01-28T10:00:46.498Z,1024.70
2023-01-28T10:01:45.489Z,1024.72
2023-01-28T10:02:46.463Z,1024.78
2023-01-28T10:14:09.254Z,1024.78
2023-01-28T10:15:09.176Z,1024.82
2023-01-28T10:16:09.708Z,1024.82
2023-01-28T10:17:09.749Z,1024.82
2023-01-28T10:18:16.921Z,1024.81
2023-01-28T10:19:09.712Z,1024.82
2023-01-28T10:20:09.712Z,1024.81
2023-01-28T10:21:09.701Z,1024.83
2023-01-28T10:22:09.701Z,1024.83
2023-01-28T10:23:09.712Z,1024.86
2023-01-28T10:24:09.803Z,1024.88
2023-01-28T10:25:09.756Z,1024.83
2023-01-28T10:26:09.709Z,1024.86
2023-01-28T10:27:09.771Z,1024.83
2023-01-28T10:28:09.740Z,1024.82
2023-01-28T10:29:09.716Z,1024.86
2023-01-28T10:30:09.819Z,1024.84
2023-01-28T10:31:09.825Z,1024.78
2023-01-28T10:32:09.715Z,1024.76
2023-01-28T10:33:09.713Z,1024.76
2023-01-28T10:34:09.718Z,1024.77
2023-01-28T10:35:09.223Z,1024.73
2023-01-28T10:36:08.105Z,1024.73
2023-01-28T10:37:08.088Z,1024.71
2023-01-28T10:38:08.085Z,1024.69
2023-01-28T10:39:09.241Z,1024.65
2023-01-28T10:40:08.078Z,1024.68
2023-01-28T10:41:09.021Z,1024.72
2023-01-28T10:42:08.071Z,1024.72
2023-01-28T10:43:08.096Z,1024.65
2023-01-28T10:44:09.732Z,1024.56
2023-01-28T10:45:08.059Z,1024.52
2023-01-28T10:46:08.142Z,1024.50
2023-01-28T10:47:08.051Z,1024.46
2023-01-28T10:48:09.739Z,1024.47
2023-01-28T10:49:09.044Z,1024.45
2023-01-28T10:50:09.056Z,1024.48
2023-01-28T10:51:09.052Z,1024.45
2023-01-28T10:52:09.751Z,1024.42
2023-01-28T10:53:09.032Z,1024.44
2023-01-28T10:54:08.023Z,1024.42
2023-01-28T10:55:09.733Z,1024.41
2023-01-28T10:56:09.028Z,1024.38
2023-01-28T10:57:09.752Z,1024.41
2023-01-28T10:58:09.013Z,1024.41
2023-01-28T10:59:09.737Z,1024.40
2023-01-28T11:00:09.002Z,1024.39
2023-01-28T11:01:09.278Z,1024.38
2023-01-28T11:02:09.833Z,1024.37
2023-01-28T11:03:09.749Z,1024.37
2023-01-28T11:04:08.001Z,1024.36
2023-01-28T11:05:08.009Z,1024.39
2023-01-28T11:06:09.757Z,1024.41
2023-01-28T11:07:09.763Z,1024.40
2023-01-28T11:08:07.987Z,1024.39
2023-01-28T11:09:07.974Z,1024.36
2023-01-28T11:10:07.983Z,1024.36
2023-01-28T11:11:09.771Z,1024.34
2023-01-28T11:12:07.970Z,1024.34
2023-01-28T11:13:07.963Z,1024.29
2023-01-28T11:14:07.972Z,1024.30
2023-01-28T11:15:07.967Z,1024.32
2023-01-28T11:16:09.255Z,1024.30
2023-01-28T11:17:07.945Z,1024.28
2023-01-28T11:18:08.454Z,1024.23
2023-01-28T11:19:07.982Z,1024.18
2023-01-28T11:20:09.788Z,1024.22
2023-01-28T11:21:09.755Z,1024.21
2023-01-28T11:22:09.930Z,1024.19
2023-01-28T11:23:09.791Z,1024.19
2023-01-28T11:24:09.767Z,1024.16
2023-01-28T11:25:09.762Z,1024.16
2023-01-28T11:26:09.788Z,1024.14
2023-01-28T11:27:09.768Z,1024.13
2023-01-28T11:28:09.768Z,1024.14
2023-01-28T11:29:07.912Z,1024.15
2023-01-28T11:30:09.785Z,1024.17
2023-01-28T11:31:09.814Z,1024.16
2023-01-28T11:32:08.905Z,1024.17
2023-01-28T11:33:09.757Z,1024.14
2023-01-28T11:34:09.784Z,1024.09
2023-01-28T11:35:09.767Z,1024.06
2023-01-28T11:36:09.794Z,1024.07
2023-01-28T11:37:09.777Z,1024.07
2023-01-28T11:38:09.769Z,1024.05
2023-01-28T11:39:09.780Z,1024.02
2023-01-28T11:40:09.773Z,1024.00
2023-01-28T11:41:09.279Z,1023.97
2023-01-28T11:42:09.788Z,1023.90
2023-01-28T11:43:08.871Z,1023.90
2023-01-28T11:44:08.890Z,1023.86
2023-01-28T11:45:08.865Z,1023.87
2023-01-28T11:46:09.354Z,1023.84
2023-01-28T11:47:09.792Z,1023.87
2023-01-28T11:48:08.857Z,1023.79
2023-01-28T11:49:07.864Z,1023.80
2023-01-28T11:50:08.846Z,1023.73
2023-01-28T11:51:08.876Z,1023.63
2023-01-28T11:52:09.803Z,1023.57
2023-01-28T11:53:09.827Z,1023.55
2023-01-28T11:54:09.827Z,1023.54
2023-01-28T11:55:09.791Z,1023.53
2023-01-28T11:56:09.816Z,1023.45
2023-01-28T11:57:09.783Z,1023.50
2023-01-28T11:58:09.789Z,1023.52
2023-01-28T11:59:09.812Z,1023.48
2023-01-28T12:00:09.785Z,1023.45
2023-01-28T12:01:09.790Z,1023.39
2023-01-28T12:02:09.793Z,1023.30
2023-01-28T12:03:09.312Z,1023.27
2023-01-28T12:04:08.816Z,1023.25
2023-01-28T12:05:09.352Z,1023.25
2023-01-28T12:06:09.322Z,1023.27
2023-01-28T12:07:09.307Z,1023.24
2023-01-28T12:08:09.293Z,1023.22
2023-01-28T12:09:09.294Z,1023.22
2023-01-28T12:10:09.336Z,1023.18
2023-01-28T12:11:09.818Z,1023.21
2023-01-28T12:12:09.305Z,1023.23
2023-01-28T12:13:09.315Z,1023.21
2023-01-28T12:14:09.308Z,1023.24
2023-01-28T12:15:10.300Z,1023.30
2023-01-28T12:16:09.437Z,1023.31
2023-01-28T12:17:09.313Z,1023.30
2023-01-28T12:18:09.311Z,1023.37
2023-01-28T12:19:09.311Z,1023.38
2023-01-28T12:20:08.773Z,1023.37
2023-01-28T12:21:08.819Z,1023.32
2023-01-28T12:22:07.790Z,1023.25
2023-01-28T12:23:09.318Z,1023.17
2023-01-28T12:24:10.309Z,1023.16
2023-01-28T12:25:08.768Z,1023.13
2023-01-28T12:26:08.764Z,1023.14
2023-01-28T12:27:07.851Z,1023.13
2023-01-28T12:28:09.325Z,1023.08
2023-01-28T12:29:09.323Z,1023.06
2023-01-28T12:30:08.757Z,1023.04
2023-01-28T12:31:09.402Z,1023.07
2023-01-28T12:32:07.760Z,1023.09
2023-01-28T12:33:09.325Z,1023.16
2023-01-28T12:34:09.334Z,1023.15
2023-01-28T12:35:09.335Z,1023.06
2023-01-28T12:36:09.332Z,1023.08
2023-01-28T12:37:08.834Z,1023.05
2023-01-28T12:38:09.334Z,1023.07
2023-01-28T12:39:09.324Z,1023.16
2023-01-28T12:40:09.334Z,1023.16
2023-01-28T12:41:08.848Z,1023.17
2023-01-28T12:42:09.333Z,1023.13
2023-01-28T12:43:09.339Z,1023.10
2023-01-28T12:44:09.346Z,1023.14
2023-01-28T12:45:09.335Z,1023.18
2023-01-28T12:46:07.761Z,1023.20
2023-01-28T12:47:09.344Z,1023.18
2023-01-28T12:48:07.730Z,1023.22
2023-01-28T12:49:08.867Z,1023.24
2023-01-28T12:50:07.725Z,1023.30
2023-01-28T12:51:07.711Z,1023.31
2023-01-28T12:52:07.697Z,1023.30
2023-01-28T12:53:07.713Z,1023.25
2023-01-28T12:54:09.362Z,1023.25
2023-01-28T12:55:09.350Z,1023.25
2023-01-28T12:56:09.366Z,1023.31
2023-01-28T12:57:09.340Z,1023.30
2023-01-28T12:58:09.342Z,1023.30
2023-01-28T12:59:09.367Z,1023.28
2023-01-28T13:00:09.357Z,1023.27
2023-01-28T13:01:09.344Z,1023.25
2023-01-28T13:02:09.414Z,1023.27
2023-01-28T13:03:09.366Z,1023.32
2023-01-28T13:04:08.862Z,1023.33
2023-01-28T13:05:09.381Z,1023.31
2023-01-28T13:06:09.358Z,1023.26
2023-01-28T13:07:09.343Z,1023.29
2023-01-28T13:08:09.359Z,1023.31
2023-01-28T13:09:09.359Z,1023.33
2023-01-28T13:10:09.385Z,1023.31
2023-01-28T13:11:08.668Z,1023.30
2023-01-28T13:12:07.664Z,1023.31
2023-01-28T13:13:09.365Z,1023.32
2023-01-28T13:14:08.869Z,1023.34
2023-01-28T13:15:07.671Z,1023.39
2023-01-28T13:16:08.709Z,1023.41
2023-01-28T13:17:07.686Z,1023.44
2023-01-28T13:18:09.369Z,1023.51
2023-01-28T13:19:08.871Z,1023.50
2023-01-28T13:20:08.647Z,1023.51
2023-01-28T13:21:08.878Z,1023.51
2023-01-28T13:22:07.646Z,1023.53
2023-01-28T13:23:09.384Z,1023.56
2023-01-28T13:24:08.936Z,1023.55
2023-01-28T13:25:09.368Z,1023.56
2023-01-28T13:26:09.377Z,1023.55
2023-01-28T13:27:09.375Z,1023.46
2023-01-28T13:28:09.373Z,1023.46
2023-01-28T13:29:09.384Z,1023.43
2023-01-28T13:30:09.372Z,1023.45
2023-01-28T13:31:09.439Z,1023.41
2023-01-28T13:32:09.369Z,1023.34
2023-01-28T13:33:09.371Z,1023.25
2023-01-28T13:34:09.386Z,1023.18
2023-01-28T13:35:09.376Z,1023.12
2023-01-28T13:36:09.379Z,1023.15
2023-01-28T13:37:09.379Z,1023.12
2023-01-28T13:38:09.394Z,1023.05
2023-01-28T13:39:09.409Z,1023.03
2023-01-28T13:40:09.442Z,1022.96
2023-01-28T13:41:09.391Z,1022.94
2023-01-28T13:42:09.391Z,1022.92
2023-01-28T13:43:09.377Z,1022.86
2023-01-28T13:44:09.425Z,1022.78
2023-01-28T13:45:09.396Z,1022.74
2023-01-28T13:46:09.479Z,1022.66
2023-01-28T13:47:09.384Z,1022.70
2023-01-28T13:48:09.401Z,1022.68
2023-01-28T13:49:09.410Z,1022.71
2023-01-28T13:50:08.625Z,1022.72
2023-01-28T13:51:08.567Z,1022.74
2023-01-28T13:52:07.576Z,1022.73
2023-01-28T13:53:09.414Z,1022.72
2023-01-28T13:54:08.917Z,1022.70
2023-01-28T13:55:07.567Z,1022.65
2023-01-28T13:56:08.561Z,1022.65
2023-01-28T13:57:07.570Z,1022.66
2023-01-28T13:58:09.447Z,1022.66
2023-01-28T13:59:08.910Z,1022.63
2023-01-28T14:00:09.095Z,1022.65
2023-01-28T14:01:08.593Z,1022.64
2023-01-28T14:02:09.401Z,1022.68
2023-01-28T14:03:08.550Z,1022.73
2023-01-28T14:04:09.516Z,1022.81
2023-01-28T14:05:08.922Z,1022.85
2023-01-28T14:06:09.413Z,1022.81
2023-01-28T14:07:07.533Z,1022.89
2023-01-28T14:08:09.409Z,1022.87
2023-01-28T14:09:09.416Z,1022.83
2023-01-28T14:10:09.007Z,1022.80
2023-01-28T14:11:08.575Z,1022.85
2023-01-28T14:12:07.529Z,1022.87
2023-01-28T14:13:07.532Z,1022.93
2023-01-28T14:14:07.582Z,1022.95
2023-01-28T14:15:10.535Z,1022.89
2023-01-28T14:16:07.574Z,1022.90
2023-01-28T14:17:07.545Z,1022.84
2023-01-28T14:18:07.522Z,1022.84
2023-01-28T14:19:08.930Z,1022.91
2023-01-28T14:20:07.542Z,1022.99
2023-01-28T14:21:07.544Z,1022.96
2023-01-28T14:22:07.523Z,1022.97
2023-01-28T14:23:07.516Z,1022.96
2023-01-28T14:24:08.957Z,1023.02
2023-01-28T14:25:07.515Z,1023.03
2023-01-28T14:26:07.512Z,1023.04
2023-01-28T14:27:07.505Z,1022.99
2023-01-28T14:28:09.536Z,1023.04
2023-01-28T14:29:09.576Z,1023.04
2023-01-28T14:30:09.422Z,1023.05
2023-01-28T14:31:09.481Z,1023.05
2023-01-28T14:32:10.957Z,1023.06
2023-01-28T14:33:09.435Z,1023.09
2023-01-28T14:34:09.449Z,1023.06
2023-01-28T14:35:09.443Z,1023.08
2023-01-28T14:36:08.489Z,1023.07
2023-01-28T14:37:09.435Z,1023.12
2023-01-28T14:38:09.477Z,1023.08
2023-01-28T14:39:09.440Z,1023.05
2023-01-28T14:40:09.435Z,1023.05
2023-01-28T14:41:09.482Z,1023.06
2023-01-28T14:42:09.442Z,1023.07
2023-01-28T14:43:09.445Z,1023.12
2023-01-28T14:44:09.450Z,1023.15
2023-01-28T14:45:09.474Z,1023.18
2023-01-28T14:46:09.463Z,1023.21
2023-01-28T14:47:09.442Z,1023.22
2023-01-28T14:48:09.473Z,1023.22
2023-01-28T14:49:09.452Z,1023.22
2023-01-28T14:50:09.473Z,1023.20
2023-01-28T14:51:09.449Z,1023.19
2023-01-28T14:52:09.443Z,1023.20
2023-01-28T14:53:09.465Z,1023.20
2023-01-28T14:54:09.444Z,1023.20
2023-01-28T14:55:08.961Z,1023.17
2023-01-28T14:56:08.470Z,1023.18
2023-01-28T14:57:08.449Z,1023.26
2023-01-28T14:58:09.466Z,1023.25
2023-01-28T14:59:08.958Z,1023.24
2023-01-28T15:00:08.963Z,1023.23
2023-01-28T15:01:08.965Z,1023.21
2023-01-28T15:02:08.961Z,1023.19
2023-01-28T15:03:23.131Z,1023.25
2023-01-28T15:04:09.009Z,1023.23
2023-01-28T15:05:08.985Z,1023.22
2023-01-28T15:06:08.996Z,1023.21
2023-01-28T15:07:08.969Z,1023.20
2023-01-28T15:08:08.958Z,1023.21
2023-01-28T15:09:08.980Z,1023.20
2023-01-28T15:10:08.984Z,1023.23
2023-01-28T15:11:09.001Z,1023.24
2023-01-28T15:12:08.982Z,1023.28
2023-01-28T15:13:08.964Z,1023.27
2023-01-28T15:14:08.962Z,1023.25
2023-01-28T15:15:08.976Z,1023.27
2023-01-28T15:16:08.969Z,1023.26
2023-01-28T15:18:08.984Z,1023.29
2023-01-28T15:19:08.982Z,1023.31
2023-01-28T15:20:08.973Z,1023.29
2023-01-28T15:21:08.998Z,1023.28
2023-01-28T15:22:08.979Z,1023.27
2023-01-28T15:23:09.004Z,1023.23
2023-01-28T15:24:09.008Z,1023.26
2023-01-28T15:25:07.392Z,1023.26
2023-01-28T15:26:07.382Z,1023.28
2023-01-28T15:27:07.375Z,1023.24
2023-01-28T15:28:08.492Z,1023.22
2023-01-28T15:29:07.418Z,1023.25
2023-01-28T15:30:07.362Z,1023.30
2023-01-28T15:31:08.513Z,1023.33
2023-01-28T15:32:07.360Z,1023.37
2023-01-28T15:33:07.339Z,1023.39
2023-01-28T15:34:09.019Z,1023.42
2023-01-28T15:35:08.334Z,1023.40
2023-01-28T15:36:08.984Z,1023.44
2023-01-28T15:37:07.328Z,1023.43
2023-01-28T15:38:10.048Z,1023.46
2023-01-28T15:39:09.001Z,1023.47
2023-01-28T15:40:09.028Z,1023.45
2023-01-28T15:41:08.989Z,1023.48
2023-01-28T15:42:09.002Z,1023.55
2023-01-28T15:43:09.001Z,1023.59
2023-01-28T15:44:09.024Z,1023.56
2023-01-28T15:45:08.998Z,1023.60
2023-01-28T15:46:09.001Z,1023.61
2023-01-28T15:47:09.001Z,1023.61
2023-01-28T15:48:08.284Z,1023.63
2023-01-28T15:49:09.031Z,1023.65
2023-01-28T15:50:08.346Z,1023.66
2023-01-28T15:51:09.010Z,1023.70
2023-01-28T15:52:09.002Z,1023.72
2023-01-28T15:53:07.279Z,1023.69
2023-01-28T15:54:09.030Z,1023.73
2023-01-28T15:55:08.280Z,1023.74
2023-01-28T15:56:07.268Z,1023.71
2023-01-28T15:57:07.265Z,1023.70
2023-01-28T15:58:07.269Z,1023.69
2023-01-28T15:59:08.517Z,1023.68
2023-01-28T16:00:07.282Z,1023.63
2023-01-28T16:01:07.270Z,1023.60
2023-01-28T16:13:24.175Z,1023.49
2023-01-28T16:14:22.193Z,1023.51
2023-01-28T16:15:23.248Z,1023.53
2023-01-28T16:16:23.793Z,1023.51
2023-01-28T16:17:23.650Z,1023.53
2023-01-28T16:18:23.156Z,1023.54
2023-01-28T16:19:22.142Z,1023.54
2023-01-28T16:20:22.229Z,1023.53
2023-01-28T16:21:22.138Z,1023.55
2023-01-28T16:22:23.160Z,1023.56
2023-01-28T16:23:23.128Z,1023.51
2023-01-28T16:24:23.128Z,1023.46
2023-01-28T16:25:23.663Z,1023.46
2023-01-28T16:26:23.659Z,1023.47
2023-01-28T16:27:23.679Z,1023.40